sensor_id;sensor_type;location;lat;lon;timestamp;pressure;altitude;pressure_sealevel;temperature;humidity
77452;BME280;66537;52.370;4.832;2023-04-24T00:00:38;99847.97;;;9.72;98.80
77452;BME280;66537;52.370;4.832;2023-04-24T00:03:06;99855.41;;;9.58;99.40
77452;BME280;66537;52.370;4.832;2023-04-24T00:05:32;99860.13;;;9.49;99.88
77452;BME280;66537;52.370;4.832;2023-04-24T00:07:57;99856.81;;;9.45;100.00
77452;BME280;66537;52.370;4.832;2023-04-24T00:10:23;99864.72;;;9.41;100.00
77452;BME280;66537;52.370;4.832;2023-04-24T00:12:48;99870.94;;;9.37;100.00
77452;BME280;66537;52.370;4.832;2023-04-24T00:15:13;99867.84;;;9.49;100.00
77452;BME280;66537;52.370;4.832;2023-04-24T00:17:39;99876.81;;;9.40;100.00
77452;BME280;66537;52.370;4.832;2023-04-24T00:20:05;99878.88;;;9.54;100.00
77452;BME280;66537;52.370;4.832;2023-04-24T00:22:32;99877.09;;;9.54;100.00
77452;BME280;66537;52.370;4.832;2023-04-24T00:24:58;99890.38;;;9.45;100.00
77452;BME280;66537;52.370;4.832;2023-04-24T00:27:24;99891.88;;;9.51;100.00
77452;BME280;66537;52.370;4.832;2023-04-24T00:29:49;99895.31;;;9.51;100.00
77452;BME280;66537;52.370;4.832;2023-04-24T00:32:14;99897.72;;;9.56;100.00
77452;BME280;66537;52.370;4.832;2023-04-24T00:34:40;99889.06;;;9.57;100.00
77452;BME280;66537;52.370;4.832;2023-04-24T00:37:06;99901.78;;;9.61;100.00
77452;BME280;66537;52.370;4.832;2023-04-24T00:39:32;99903.97;;;9.50;100.00
77452;BME280;66537;52.370;4.832;2023-04-24T00:41:57;99904.19;;;9.44;100.00
77452;BME280;66537;52.370;4.832;2023-04-24T00:44:23;99905.41;;;9.57;100.00
77452;BME280;66537;52.370;4.832;2023-04-24T00:46:49;99910.06;;;9.48;100.00
77452;BME280;66537;52.370;4.832;2023-04-24T00:49:20;99907.19;;;9.55;100.00
77452;BME280;66537;52.370;4.832;2023-04-24T00:51:46;99907.84;;;9.60;100.00
77452;BME280;66537;52.370;4.832;2023-04-24T00:54:12;99911.44;;;9.56;100.00
77452;BME280;66537;52.370;4.832;2023-04-24T00:56:38;99915.00;;;9.54;100.00
77452;BME280;66537;52.370;4.832;2023-04-24T00:59:04;99912.50;;;9.52;100.00
77452;BME280;66537;52.370;4.832;2023-04-24T01:01:30;99913.06;;;9.59;100.00
77452;BME280;66537;52.370;4.832;2023-04-24T01:03:56;99913.22;;;9.56;100.00
77452;BME280;66537;52.370;4.832;2023-04-24T01:06:23;99919.69;;;9.44;100.00
77452;BME280;66537;52.370;4.832;2023-04-24T01:08:48;99914.75;;;9.38;100.00
77452;BME280;66537;52.370;4.832;2023-04-24T01:11:14;99906.47;;;9.30;100.00
77452;BME280;66537;52.370;4.832;2023-04-24T01:13:40;99917.50;;;9.34;100.00
77452;BME280;66537;52.370;4.832;2023-04-24T01:16:05;99912.47;;;9.31;100.00
77452;BME280;66537;52.370;4.832;2023-04-24T01:18:31;99916.00;;;9.28;100.00
77452;BME280;66537;52.370;4.832;2023-04-24T01:20:58;99915.88;;;9.31;100.00
77452;BME280;66537;52.370;4.832;2023-04-24T01:23:24;99918.59;;;9.28;100.00
77452;BME280;66537;52.370;4.832;2023-04-24T01:25:50;99920.38;;;9.26;100.00
77452;BME280;66537;52.370;4.832;2023-04-24T01:28:16;99923.31;;;9.17;100.00
77452;BME280;66537;52.370;4.832;2023-04-24T01:30:41;99927.91;;;9.09;100.00
77452;BME280;66537;52.370;4.832;2023-04-24T01:33:08;99934.06;;;9.05;100.00
77452;BME280;66537;52.370;4.832;2023-04-24T01:35:33;99931.50;;;9.05;100.00
77452;BME280;66537;52.370;4.832;2023-04-24T01:37:59;99930.16;;;8.95;100.00
77452;BME280;66537;52.370;4.832;2023-04-24T01:40:24;99931.16;;;8.91;100.00
77452;BME280;66537;52.370;4.832;2023-04-24T01:42:50;99940.03;;;8.84;98.98
77452;BME280;66537;52.370;4.832;2023-04-24T01:45:15;99941.81;;;8.82;98.87
77452;BME280;66537;52.370;4.832;2023-04-24T01:47:41;99942.16;;;8.73;98.75
77452;BME280;66537;52.370;4.832;2023-04-24T01:50:07;99935.41;;;8.69;98.76
77452;BME280;66537;52.370;4.832;2023-04-24T01:52:32;99943.97;;;8.69;98.97
77452;BME280;66537;52.370;4.832;2023-04-24T01:55:02;99936.88;;;8.76;99.39
77452;BME280;66537;52.370;4.832;2023-04-24T01:57:28;99935.13;;;8.76;99.67
77452;BME280;66537;52.370;4.832;2023-04-24T01:59:55;99939.44;;;8.76;99.50
77452;BME280;66537;52.370;4.832;2023-04-24T02:02:20;99937.28;;;8.64;99.80
77452;BME280;66537;52.370;4.832;2023-04-24T02:04:46;99944.03;;;8.68;99.80
77452;BME280;66537;52.370;4.832;2023-04-24T02:07:11;99943.50;;;8.58;100.00
77452;BME280;66537;52.370;4.832;2023-04-24T02:09:37;99957.13;;;8.62;100.00
77452;BME280;66537;52.370;4.832;2023-04-24T02:12:02;99948.34;;;8.67;100.00
77452;BME280;66537;52.370;4.832;2023-04-24T02:14:28;99951.97;;;8.62;100.00
77452;BME280;66537;52.370;4.832;2023-04-24T02:16:53;99948.59;;;8.60;99.95
77452;BME280;66537;52.370;4.832;2023-04-24T02:19:19;99945.28;;;8.56;100.00
77452;BME280;66537;52.370;4.832;2023-04-24T02:21:44;99947.94;;;8.55;98.70
77452;BME280;66537;52.370;4.832;2023-04-24T02:24:10;99954.72;;;8.57;99.02
77452;BME280;66537;52.370;4.832;2023-04-24T02:26:35;99949.66;;;8.54;98.32
77452;BME280;66537;52.370;4.832;2023-04-24T02:29:01;99955.44;;;8.61;98.60
77452;BME280;66537;52.370;4.832;2023-04-24T02:31:26;99957.31;;;8.56;97.77
77452;BME280;66537;52.370;4.832;2023-04-24T02:33:52;99957.91;;;8.64;97.96
77452;BME280;66537;52.370;4.832;2023-04-24T02:36:17;99957.06;;;8.63;97.29
77452;BME280;66537;52.370;4.832;2023-04-24T02:38:42;99959.97;;;8.54;97.01
77452;BME280;66537;52.370;4.832;2023-04-24T02:41:07;99956.00;;;8.46;96.91
77452;BME280;66537;52.370;4.832;2023-04-24T02:43:33;99955.81;;;8.50;97.16
77452;BME280;66537;52.370;4.832;2023-04-24T02:45:59;99960.16;;;8.48;96.09
77452;BME280;66537;52.370;4.832;2023-04-24T02:48:24;99961.97;;;8.46;95.93
77452;BME280;66537;52.370;4.832;2023-04-24T02:50:49;99949.91;;;8.47;96.36
77452;BME280;66537;52.370;4.832;2023-04-24T02:53:15;99952.56;;;8.45;97.01
77452;BME280;66537;52.370;4.832;2023-04-24T02:55:41;99954.94;;;8.51;97.52
77452;BME280;66537;52.370;4.832;2023-04-24T02:58:06;99961.16;;;8.46;97.70
77452;BME280;66537;52.370;4.832;2023-04-24T03:00:31;99955.06;;;8.47;97.85
77452;BME280;66537;52.370;4.832;2023-04-24T03:02:57;99953.63;;;8.40;97.44
77452;BME280;66537;52.370;4.832;2023-04-24T03:05:22;99951.34;;;8.55;97.94
77452;BME280;66537;52.370;4.832;2023-04-24T03:07:47;99953.22;;;8.50;97.16
77452;BME280;66537;52.370;4.832;2023-04-24T03:10:13;99958.09;;;8.59;97.68
77452;BME280;66537;52.370;4.832;2023-04-24T03:12:38;99960.13;;;8.50;97.70
77452;BME280;66537;52.370;4.832;2023-04-24T03:15:04;99964.25;;;8.55;97.80
77452;BME280;66537;52.370;4.832;2023-04-24T03:17:29;99958.09;;;8.59;98.23
77452;BME280;66537;52.370;4.832;2023-04-24T03:19:55;99962.06;;;8.68;98.64
77452;BME280;66537;52.370;4.832;2023-04-24T03:22:20;99968.34;;;8.61;98.27
77452;BME280;66537;52.370;4.832;2023-04-24T03:24:46;99965.84;;;8.58;98.23
77452;BME280;66537;52.370;4.832;2023-04-24T03:27:11;99961.28;;;8.66;98.43
77452;BME280;66537;52.370;4.832;2023-04-24T03:29:36;99966.13;;;8.75;98.72
77452;BME280;66537;52.370;4.832;2023-04-24T03:32:02;99962.47;;;8.56;98.48
77452;BME280;66537;52.370;4.832;2023-04-24T03:34:27;99963.59;;;8.73;98.33
77452;BME280;66537;52.370;4.832;2023-04-24T03:36:53;99962.47;;;8.57;97.81
77452;BME280;66537;52.370;4.832;2023-04-24T03:39:18;99964.91;;;8.60;97.98
77452;BME280;66537;52.370;4.832;2023-04-24T03:41:44;99964.13;;;8.58;97.82
77452;BME280;66537;52.370;4.832;2023-04-24T03:44:09;99962.41;;;8.59;97.90
77452;BME280;66537;52.370;4.832;2023-04-24T03:46:34;99970.53;;;8.47;97.70
77452;BME280;66537;52.370;4.832;2023-04-24T03:49:00;99973.56;;;8.59;97.52
77452;BME280;66537;52.370;4.832;2023-04-24T03:51:25;99977.28;;;8.75;96.97
77452;BME280;66537;52.370;4.832;2023-04-24T03:53:52;99978.59;;;8.87;97.06
77452;BME280;66537;52.370;4.832;2023-04-24T03:56:18;99979.56;;;8.84;96.47
77452;BME280;66537;52.370;4.832;2023-04-24T03:58:43;99986.34;;;8.62;96.86
77452;BME280;66537;52.370;4.832;2023-04-24T04:01:08;99975.34;;;8.57;96.37
77452;BME280;66537;52.370;4.832;2023-04-24T04:03:34;99981.13;;;8.64;96.34
77452;BME280;66537;52.370;4.832;2023-04-24T04:05:59;99981.84;;;8.67;96.00
77452;BME280;66537;52.370;4.832;2023-04-24T04:08:24;99985.81;;;8.53;96.15
77452;BME280;66537;52.370;4.832;2023-04-24T04:10:50;99994.13;;;8.61;96.29
77452;BME280;66537;52.370;4.832;2023-04-24T04:13:15;99993.47;;;8.54;96.80
77452;BME280;66537;52.370;4.832;2023-04-24T04:15:40;99997.44;;;8.40;96.68
77452;BME280;66537;52.370;4.832;2023-04-24T04:18:06;100014.16;;;8.27;97.13
77452;BME280;66537;52.370;4.832;2023-04-24T04:20:31;100012.56;;;8.23;97.90
77452;BME280;66537;52.370;4.832;2023-04-24T04:22:56;100013.44;;;8.21;98.57
77452;BME280;66537;52.370;4.832;2023-04-24T04:25:22;100019.69;;;8.14;98.91
77452;BME280;66537;52.370;4.832;2023-04-24T04:27:48;100017.59;;;8.27;99.81
77452;BME280;66537;52.370;4.832;2023-04-24T04:30:14;100019.88;;;8.36;100.00
77452;BME280;66537;52.370;4.832;2023-04-24T04:32:39;100022.69;;;8.29;100.00
77452;BME280;66537;52.370;4.832;2023-04-24T04:35:05;100024.47;;;8.27;99.90
77452;BME280;66537;52.370;4.832;2023-04-24T04:37:33;100025.13;;;8.33;99.55
77452;BME280;66537;52.370;4.832;2023-04-24T04:39:59;100037.44;;;8.23;99.98
77452;BME280;66537;52.370;4.832;2023-04-24T04:42:25;100036.47;;;8.28;99.73
77452;BME280;66537;52.370;4.832;2023-04-24T04:44:52;100037.63;;;8.45;99.43
77452;BME280;66537;52.370;4.832;2023-04-24T04:47:17;100042.66;;;8.48;99.29
77452;BME280;66537;52.370;4.832;2023-04-24T04:49:43;100051.19;;;8.50;98.86
77452;BME280;66537;52.370;4.832;2023-04-24T04:52:09;100056.06;;;8.59;98.92
77452;BME280;66537;52.370;4.832;2023-04-24T04:54:34;100057.88;;;8.56;98.81
77452;BME280;66537;52.370;4.832;2023-04-24T04:57:00;100052.72;;;8.56;98.89
77452;BME280;66537;52.370;4.832;2023-04-24T04:59:26;100055.88;;;8.64;99.30
77452;BME280;66537;52.370;4.832;2023-04-24T05:01:51;100062.41;;;8.49;99.06
77452;BME280;66537;52.370;4.832;2023-04-24T05:04:17;100060.63;;;8.51;99.12
77452;BME280;66537;52.370;4.832;2023-04-24T05:06:42;100065.59;;;8.57;99.47
77452;BME280;66537;52.370;4.832;2023-04-24T05:09:07;100075.47;;;8.69;100.00
77452;BME280;66537;52.370;4.832;2023-04-24T05:11:33;100078.91;;;8.70;100.00
77452;BME280;66537;52.370;4.832;2023-04-24T05:13:58;100086.50;;;8.74;100.00
77452;BME280;66537;52.370;4.832;2023-04-24T05:16:23;100086.44;;;8.76;100.00
77452;BME280;66537;52.370;4.832;2023-04-24T05:18:49;100098.41;;;8.78;100.00
77452;BME280;66537;52.370;4.832;2023-04-24T05:21:14;100102.41;;;8.61;100.00
77452;BME280;66537;52.370;4.832;2023-04-24T05:23:40;100099.47;;;8.45;99.77
77452;BME280;66537;52.370;4.832;2023-04-24T05:26:05;100114.94;;;8.45;100.00
77452;BME280;66537;52.370;4.832;2023-04-24T05:28:30;100125.94;;;8.50;100.00
77452;BME280;66537;52.370;4.832;2023-04-24T05:30:56;100131.38;;;8.41;100.00
77452;BME280;66537;52.370;4.832;2023-04-24T05:33:21;100139.31;;;8.35;99.38
77452;BME280;66537;52.370;4.832;2023-04-24T05:35:47;100148.22;;;8.23;98.55
77452;BME280;66537;52.370;4.832;2023-04-24T05:38:13;100155.25;;;8.18;98.52
77452;BME280;66537;52.370;4.832;2023-04-24T05:40:39;100159.44;;;8.21;98.63
77452;BME280;66537;52.370;4.832;2023-04-24T05:43:05;100168.03;;;8.21;98.98
77452;BME280;66537;52.370;4.832;2023-04-24T05:45:30;100165.56;;;8.18;98.62
77452;BME280;66537;52.370;4.832;2023-04-24T05:47:56;100173.28;;;8.18;98.88
77452;BME280;66537;52.370;4.832;2023-04-24T05:50:22;100182.75;;;8.18;99.00
77452;BME280;66537;52.370;4.832;2023-04-24T05:52:47;100186.19;;;8.17;98.42
77452;BME280;66537;52.370;4.832;2023-04-24T05:55:12;100195.53;;;8.21;98.89
77452;BME280;66537;52.370;4.832;2023-04-24T05:57:38;100200.78;;;8.18;98.24
77452;BME280;66537;52.370;4.832;2023-04-24T06:00:04;100213.66;;;8.18;98.21
77452;BME280;66537;52.370;4.832;2023-04-24T06:02:30;100214.41;;;8.21;98.06
77452;BME280;66537;52.370;4.832;2023-04-24T06:04:58;100224.03;;;8.16;97.51
77452;BME280;66537;52.370;4.832;2023-04-24T06:07:24;100229.81;;;8.23;97.08
77452;BME280;66537;52.370;4.832;2023-04-24T06:09:51;100234.97;;;8.25;95.75
77452;BME280;66537;52.370;4.832;2023-04-24T06:12:17;100240.19;;;8.21;94.31
77452;BME280;66537;52.370;4.832;2023-04-24T06:14:42;100243.59;;;8.22;93.48
77452;BME280;66537;52.370;4.832;2023-04-24T06:17:08;100261.75;;;8.17;93.51
77452;BME280;66537;52.370;4.832;2023-04-24T06:19:33;100255.75;;;8.18;93.81
77452;BME280;66537;52.370;4.832;2023-04-24T06:21:59;100258.38;;;8.15;93.71
77452;BME280;66537;52.370;4.832;2023-04-24T06:24:27;100267.66;;;8.21;94.10
77452;BME280;66537;52.370;4.832;2023-04-24T06:26:52;100270.41;;;8.16;93.88
77452;BME280;66537;52.370;4.832;2023-04-24T06:29:18;100286.47;;;8.26;94.34
77452;BME280;66537;52.370;4.832;2023-04-24T06:31:43;100295.94;;;8.26;93.62
77452;BME280;66537;52.370;4.832;2023-04-24T06:34:08;100289.94;;;8.23;92.15
77452;BME280;66537;52.370;4.832;2023-04-24T06:36:34;100303.69;;;8.24;92.74
77452;BME280;66537;52.370;4.832;2023-04-24T06:39:00;100307.28;;;8.18;93.05
77452;BME280;66537;52.370;4.832;2023-04-24T06:41:26;100313.22;;;8.20;92.21
77452;BME280;66537;52.370;4.832;2023-04-24T06:43:51;100312.38;;;8.20;93.32
77452;BME280;66537;52.370;4.832;2023-04-24T06:46:17;100326.84;;;8.26;93.15
77452;BME280;66537;52.370;4.832;2023-04-24T06:48:42;100338.09;;;8.21;93.67
77452;BME280;66537;52.370;4.832;2023-04-24T06:51:07;100332.84;;;8.26;92.88
77452;BME280;66537;52.370;4.832;2023-04-24T06:53:33;100338.91;;;8.23;93.53
77452;BME280;66537;52.370;4.832;2023-04-24T06:55:58;100341.56;;;8.20;93.54
77452;BME280;66537;52.370;4.832;2023-04-24T06:58:24;100338.94;;;8.22;93.84
77452;BME280;66537;52.370;4.832;2023-04-24T07:00:50;100343.28;;;8.20;94.09
77452;BME280;66537;52.370;4.832;2023-04-24T07:03:15;100348.41;;;8.21;93.65
77452;BME280;66537;52.370;4.832;2023-04-24T07:05:41;100355.19;;;8.26;94.13
77452;BME280;66537;52.370;4.832;2023-04-24T07:08:06;100361.97;;;8.30;93.90
77452;BME280;66537;52.370;4.832;2023-04-24T07:10:32;100367.34;;;8.19;93.51
77452;BME280;66537;52.370;4.832;2023-04-24T07:12:59;100378.81;;;8.07;93.84
77452;BME280;66537;52.370;4.832;2023-04-24T07:15:24;100377.34;;;7.99;93.99
77452;BME280;66537;52.370;4.832;2023-04-24T07:17:50;100381.75;;;7.95;94.94
77452;BME280;66537;52.370;4.832;2023-04-24T07:20:15;100381.75;;;7.94;94.79
77452;BME280;66537;52.370;4.832;2023-04-24T07:22:41;100398.09;;;7.93;94.55
77452;BME280;66537;52.370;4.832;2023-04-24T07:25:07;100397.25;;;7.92;95.00
77452;BME280;66537;52.370;4.832;2023-04-24T07:27:33;100405.03;;;7.91;95.71
77452;BME280;66537;52.370;4.832;2023-04-24T07:29:59;100418.75;;;7.91;95.89
77452;BME280;66537;52.370;4.832;2023-04-24T07:32:24;100418.91;;;7.85;95.77
77452;BME280;66537;52.370;4.832;2023-04-24T07:34:50;100426.81;;;7.76;95.56
77452;BME280;66537;52.370;4.832;2023-04-24T07:37:15;100434.00;;;7.64;95.11
77452;BME280;66537;52.370;4.832;2023-04-24T07:39:40;100435.69;;;7.65;94.30
77452;BME280;66537;52.370;4.832;2023-04-24T07:42:06;100438.16;;;7.69;94.64
77452;BME280;66537;52.370;4.832;2023-04-24T07:44:31;100445.56;;;7.83;94.94
77452;BME280;66537;52.370;4.832;2023-04-24T07:46:57;100450.78;;;7.80;93.83
77452;BME280;66537;52.370;4.832;2023-04-24T07:49:23;100455.19;;;7.75;93.90
77452;BME280;66537;52.370;4.832;2023-04-24T07:51:49;100463.69;;;7.78;93.32
77452;BME280;66537;52.370;4.832;2023-04-24T07:54:14;100456.78;;;7.80;93.35
77452;BME280;66537;52.370;4.832;2023-04-24T07:56:40;100476.38;;;7.87;92.58
77452;BME280;66537;52.370;4.832;2023-04-24T07:59:08;100479.56;;;7.97;92.41
77452;BME280;66537;52.370;4.832;2023-04-24T08:01:35;100478.63;;;8.01;90.65
77452;BME280;66537;52.370;4.832;2023-04-24T08:04:00;100487.28;;;7.97;89.34
77452;BME280;66537;52.370;4.832;2023-04-24T08:06:26;100483.78;;;7.99;88.13
77452;BME280;66537;52.370;4.832;2023-04-24T08:08:58;100494.13;;;7.98;86.04
77452;BME280;66537;52.370;4.832;2023-04-24T08:11:24;100494.56;;;8.15;86.93
77452;BME280;66537;52.370;4.832;2023-04-24T08:13:49;100508.16;;;8.21;86.62
77452;BME280;66537;52.370;4.832;2023-04-24T08:16:15;100509.25;;;8.11;83.05
77452;BME280;66537;52.370;4.832;2023-04-24T08:18:40;100522.13;;;8.11;81.69
77452;BME280;66537;52.370;4.832;2023-04-24T08:21:06;100525.53;;;8.13;82.99
77452;BME280;66537;52.370;4.832;2023-04-24T08:23:31;100520.28;;;8.18;81.32
77452;BME280;66537;52.370;4.832;2023-04-24T08:25:57;100530.50;;;8.21;81.54
77452;BME280;66537;52.370;4.832;2023-04-24T08:28:22;100534.88;;;8.17;81.97
77452;BME280;66537;52.370;4.832;2023-04-24T08:30:48;100540.84;;;8.19;82.59
77452;BME280;66537;52.370;4.832;2023-04-24T08:33:17;100546.09;;;8.15;82.28
77452;BME280;66537;52.370;4.832;2023-04-24T08:35:43;100548.66;;;8.16;81.21
77452;BME280;66537;52.370;4.832;2023-04-24T08:38:08;100546.81;;;8.21;81.69
77452;BME280;66537;52.370;4.832;2023-04-24T08:40:34;100566.50;;;8.26;82.33
77452;BME280;66537;52.370;4.832;2023-04-24T08:43:00;100559.78;;;8.17;82.32
77452;BME280;66537;52.370;4.832;2023-04-24T08:45:26;100565.94;;;8.11;81.82
77452;BME280;66537;52.370;4.832;2023-04-24T08:47:52;100562.47;;;8.14;82.33
77452;BME280;66537;52.370;4.832;2023-04-24T08:50:20;100563.28;;;8.16;82.44
77452;BME280;66537;52.370;4.832;2023-04-24T08:52:45;100569.22;;;8.18;81.42
77452;BME280;66537;52.370;4.832;2023-04-24T08:55:12;100576.91;;;8.19;79.84
77452;BME280;66537;52.370;4.832;2023-04-24T08:57:37;100576.19;;;8.13;80.20
77452;BME280;66537;52.370;4.832;2023-04-24T09:00:05;100587.28;;;8.18;79.71
77452;BME280;66537;52.370;4.832;2023-04-24T09:02:31;100580.41;;;8.17;78.48
77452;BME280;66537;52.370;4.832;2023-04-24T09:04:59;100588.00;;;8.23;78.22
77452;BME280;66537;52.370;4.832;2023-04-24T09:07:26;100581.06;;;8.28;78.40
77452;BME280;66537;52.370;4.832;2023-04-24T09:09:52;100592.81;;;8.40;79.49
77452;BME280;66537;52.370;4.832;2023-04-24T09:12:18;100594.16;;;8.54;79.29
77452;BME280;66537;52.370;4.832;2023-04-24T09:14:45;100588.94;;;8.57;78.41
77452;BME280;66537;52.370;4.832;2023-04-24T09:17:13;100594.28;;;8.83;78.92
77452;BME280;66537;52.370;4.832;2023-04-24T09:19:40;100596.00;;;8.84;78.92
77452;BME280;66537;52.370;4.832;2023-04-24T09:22:06;100601.03;;;8.89;76.87
77452;BME280;66537;52.370;4.832;2023-04-24T09:24:32;100597.78;;;8.82;77.40
77452;BME280;66537;52.370;4.832;2023-04-24T09:26:58;100593.53;;;8.80;78.57
77452;BME280;66537;52.370;4.832;2023-04-24T09:29:24;100606.47;;;8.78;78.07
77452;BME280;66537;52.370;4.832;2023-04-24T09:31:50;100615.22;;;8.73;79.00
77452;BME280;66537;52.370;4.832;2023-04-24T09:34:21;100619.75;;;8.62;78.39
77452;BME280;66537;52.370;4.832;2023-04-24T09:36:46;100617.19;;;8.62;77.67
77452;BME280;66537;52.370;4.832;2023-04-24T09:39:14;100626.47;;;8.69;77.96
77452;BME280;66537;52.370;4.832;2023-04-24T09:41:50;100621.00;;;8.81;77.99
77452;BME280;66537;52.370;4.832;2023-04-24T09:44:18;100629.34;;;8.92;77.07
77452;BME280;66537;52.370;4.832;2023-04-24T09:46:50;100621.56;;;8.93;75.40
77452;BME280;66537;52.370;4.832;2023-04-24T09:49:21;100638.66;;;8.97;75.45
77452;BME280;66537;52.370;4.832;2023-04-24T09:51:46;100643.53;;;9.08;76.03
77452;BME280;66537;52.370;4.832;2023-04-24T09:54:19;100638.38;;;8.74;75.57
77452;BME280;66537;52.370;4.832;2023-04-24T09:56:47;100646.66;;;8.87;74.55
77452;BME280;66537;52.370;4.832;2023-04-24T09:59:14;100658.81;;;9.16;75.45
77452;BME280;66537;52.370;4.832;2023-04-24T10:01:40;100665.78;;;9.14;74.40
77452;BME280;66537;52.370;4.832;2023-04-24T10:04:19;100676.16;;;9.10;73.58
77452;BME280;66537;52.370;4.832;2023-04-24T10:06:47;100672.53;;;8.84;74.55
77452;BME280;66537;52.370;4.832;2023-04-24T10:09:14;100687.75;;;8.58;74.46
77452;BME280;66537;52.370;4.832;2023-04-24T10:11:45;100686.97;;;8.54;75.01
77452;BME280;66537;52.370;4.832;2023-04-24T10:14:13;100690.03;;;8.33;75.33
77452;BME280;66537;52.370;4.832;2023-04-24T10:16:40;100696.63;;;8.46;77.60
77452;BME280;66537;52.370;4.832;2023-04-24T10:19:06;100695.78;;;8.46;79.98
77452;BME280;66537;52.370;4.832;2023-04-24T10:21:32;100691.41;;;8.49;80.26
77452;BME280;66537;52.370;4.832;2023-04-24T10:23:58;100694.38;;;8.31;83.24
77452;BME280;66537;52.370;4.832;2023-04-24T10:26:26;100690.22;;;8.26;83.09
77452;BME280;66537;52.370;4.832;2023-04-24T10:28:52;100696.00;;;8.35;83.67
77452;BME280;66537;52.370;4.832;2023-04-24T10:31:18;100697.41;;;8.86;81.57
77452;BME280;66537;52.370;4.832;2023-04-24T10:33:45;100696.66;;;9.17;78.33
77452;BME280;66537;52.370;4.832;2023-04-24T10:36:12;100684.41;;;9.87;75.67
77452;BME280;66537;52.370;4.832;2023-04-24T10:38:41;100690.09;;;10.58;73.19
77452;BME280;66537;52.370;4.832;2023-04-24T10:41:09;100687.16;;;10.41;72.26
77452;BME280;66537;52.370;4.832;2023-04-24T10:43:41;100699.56;;;10.58;72.54
77452;BME280;66537;52.370;4.832;2023-04-24T10:46:08;100685.97;;;10.24;70.46
77452;BME280;66537;52.370;4.832;2023-04-24T10:48:35;100700.06;;;10.14;71.12
77452;BME280;66537;52.370;4.832;2023-04-24T10:51:01;100699.56;;;10.85;68.58
77452;BME280;66537;52.370;4.832;2023-04-24T10:53:30;100706.25;;;10.37;68.08
77452;BME280;66537;52.370;4.832;2023-04-24T10:56:06;100697.19;;;10.23;70.22
77452;BME280;66537;52.370;4.832;2023-04-24T10:58:35;100709.00;;;10.60;70.27
77452;BME280;66537;52.370;4.832;2023-04-24T11:01:02;100725.47;;;9.98;70.85
77452;BME280;66537;52.370;4.832;2023-04-24T11:03:32;100726.72;;;9.51;71.28
77452;BME280;66537;52.370;4.832;2023-04-24T11:06:01;100738.13;;;9.44;73.01
77452;BME280;66537;52.370;4.832;2023-04-24T11:08:43;100738.56;;;9.60;72.51
77452;BME280;66537;52.370;4.832;2023-04-24T11:11:11;100730.09;;;9.85;72.41
77452;BME280;66537;52.370;4.832;2023-04-24T11:16:46;100743.66;;;9.93;69.60
77452;BME280;66537;52.370;4.832;2023-04-24T11:21:44;100734.09;;;10.57;67.33
77452;BME280;66537;52.370;4.832;2023-04-24T11:24:31;100732.41;;;11.36;64.24
77452;BME280;66537;52.370;4.832;2023-04-24T11:34:51;100753.34;;;12.05;64.10
77452;BME280;66537;52.370;4.832;2023-04-24T11:37:17;100744.66;;;11.05;62.15
77452;BME280;66537;52.370;4.832;2023-04-24T11:39:42;100759.63;;;11.73;64.26
77452;BME280;66537;52.370;4.832;2023-04-24T11:42:09;100752.56;;;11.78;62.80
77452;BME280;66537;52.370;4.832;2023-04-24T11:44:35;100760.38;;;11.25;64.32
77452;BME280;66537;52.370;4.832;2023-04-24T11:47:04;100761.00;;;11.59;64.90
77452;BME280;66537;52.370;4.832;2023-04-24T11:49:29;100767.25;;;11.52;65.01
77452;BME280;66537;52.370;4.832;2023-04-24T11:51:55;100762.31;;;10.92;66.10
77452;BME280;66537;52.370;4.832;2023-04-24T11:54:21;100763.50;;;10.25;68.09
77452;BME280;66537;52.370;4.832;2023-04-24T11:56:47;100781.88;;;10.15;69.92
77452;BME280;66537;52.370;4.832;2023-04-24T11:59:13;100782.88;;;9.77;70.10
77452;BME280;66537;52.370;4.832;2023-04-24T12:01:48;100793.81;;;9.53;71.70
77452;BME280;66537;52.370;4.832;2023-04-24T12:04:15;100796.63;;;9.08;75.56
77452;BME280;66537;52.370;4.832;2023-04-24T12:06:59;100814.34;;;8.87;76.72
77452;BME280;66537;52.370;4.832;2023-04-24T12:09:25;100809.06;;;8.91;76.74
77452;BME280;66537;52.370;4.832;2023-04-24T12:11:54;100817.19;;;8.75;73.46
77452;BME280;66537;52.370;4.832;2023-04-24T12:14:22;100813.75;;;8.74;71.69
77452;BME280;66537;52.370;4.832;2023-04-24T12:16:49;100818.34;;;9.00;71.57
77452;BME280;66537;52.370;4.832;2023-04-24T12:19:22;100817.09;;;9.16;71.02
77452;BME280;66537;52.370;4.832;2023-04-24T12:22:05;100817.22;;;9.48;70.09
77452;BME280;66537;52.370;4.832;2023-04-24T12:24:31;100819.69;;;9.51;70.09
77452;BME280;66537;52.370;4.832;2023-04-24T12:27:00;100821.97;;;9.63;68.93
77452;BME280;66537;52.370;4.832;2023-04-24T12:29:26;100834.34;;;9.51;69.29
77452;BME280;66537;52.370;4.832;2023-04-24T12:31:52;100847.81;;;9.28;69.21
77452;BME280;66537;52.370;4.832;2023-04-24T12:34:21;100840.84;;;9.67;69.77
77452;BME280;66537;52.370;4.832;2023-04-24T12:36:47;100833.53;;;9.49;68.38
77452;BME280;66537;52.370;4.832;2023-04-24T12:39:19;100831.41;;;9.29;69.68
77452;BME280;66537;52.370;4.832;2023-04-24T12:41:58;100844.94;;;9.40;70.88
77452;BME280;66537;52.370;4.832;2023-04-24T12:44:33;100856.03;;;9.44;71.41
77452;BME280;66537;52.370;4.832;2023-04-24T12:47:02;100860.84;;;9.22;70.73
77452;BME280;66537;52.370;4.832;2023-04-24T12:49:30;100855.09;;;9.48;70.66
77452;BME280;66537;52.370;4.832;2023-04-24T12:51:55;100848.81;;;9.58;68.81
77452;BME280;66537;52.370;4.832;2023-04-24T12:54:20;100855.41;;;9.34;67.62
77452;BME280;66537;52.370;4.832;2023-04-24T12:56:46;100864.34;;;9.20;69.39
77452;BME280;66537;52.370;4.832;2023-04-24T12:59:11;100866.44;;;9.02;69.35
77452;BME280;66537;52.370;4.832;2023-04-24T13:01:36;100861.25;;;9.05;69.16
77452;BME280;66537;52.370;4.832;2023-04-24T13:04:02;100878.19;;;9.17;69.48
77452;BME280;66537;52.370;4.832;2023-04-24T13:06:27;100868.19;;;9.74;68.30
77452;BME280;66537;52.370;4.832;2023-04-24T13:08:53;100857.53;;;10.21;68.28